sensor_id;sensor_type;location;lat;lon;timestamp;pressure;altitude;pressure_sealevel;temperature;humidity
57801;BME280;43627;42.728;23.256;2022-09-17T00:01:19;94204.47;;;16.27;100.00
57801;BME280;43627;42.728;23.256;2022-09-17T00:03:53;94185.38;;;16.35;100.00
57801;BME280;43627;42.728;23.256;2022-09-17T00:06:22;94183.19;;;16.27;100.00
57801;BME280;43627;42.728;23.256;2022-09-17T00:08:49;94186.63;;;16.34;100.00
57801;BME280;43627;42.728;23.256;2022-09-17T00:11:18;94188.19;;;16.29;100.00
57801;BME280;43627;42.728;23.256;2022-09-17T00:13:50;94172.59;;;16.37;100.00
57801;BME280;43627;42.728;23.256;2022-09-17T00:16:32;94156.38;;;16.34;100.00
57801;BME280;43627;42.728;23.256;2022-09-17T00:18:59;94162.19;;;16.30;100.00
57801;BME280;43627;42.728;23.256;2022-09-17T00:21:27;94159.06;;;16.20;100.00
57801;BME280;43627;42.728;23.256;2022-09-17T00:23:59;94158.97;;;16.26;100.00
57801;BME280;43627;42.728;23.256;2022-09-17T00:26:27;94165.44;;;16.28;100.00
57801;BME280;43627;42.728;23.256;2022-09-17T00:28:55;94174.91;;;16.33;100.00
57801;BME280;43627;42.728;23.256;2022-09-17T00:31:23;94164.56;;;16.39;100.00
57801;BME280;43627;42.728;23.256;2022-09-17T00:33:50;94164.50;;;16.45;100.00
57801;BME280;43627;42.728;23.256;2022-09-17T00:36:17;94162.03;;;16.41;100.00
57801;BME280;43627;42.728;23.256;2022-09-17T00:38:50;94160.25;;;16.44;100.00
57801;BME280;43627;42.728;23.256;2022-09-17T00:41:16;94168.19;;;16.28;100.00
57801;BME280;43627;42.728;23.256;2022-09-17T00:43:49;94176.50;;;16.23;100.00
57801;BME280;43627;42.728;23.256;2022-09-17T00:46:37;94187.00;;;16.24;100.00
57801;BME280;43627;42.728;23.256;2022-09-17T00:49:11;94182.00;;;16.23;100.00
57801;BME280;43627;42.728;23.256;2022-09-17T00:51:46;94191.75;;;16.24;100.00
57801;BME280;43627;42.728;23.256;2022-09-17T00:54:15;94202.19;;;16.07;100.00
57801;BME280;43627;42.728;23.256;2022-09-17T00:56:42;94204.94;;;16.07;100.00
57801;BME280;43627;42.728;23.256;2022-09-17T00:59:09;94200.81;;;15.94;100.00
57801;BME280;43627;42.728;23.256;2022-09-17T01:01:36;94193.94;;;15.82;100.00
57801;BME280;43627;42.728;23.256;2022-09-17T01:04:03;94193.03;;;15.74;100.00
57801;BME280;43627;42.728;23.256;2022-09-17T01:12:26;94166.50;;;15.77;100.00
57801;BME280;43627;42.728;23.256;2022-09-17T01:31:29;94159.53;;;15.76;100.00
57801;BME280;43627;42.728;23.256;2022-09-17T01:37:23;94135.97;;;15.80;100.00
57801;BME280;43627;42.728;23.256;2022-09-17T01:45:56;94166.28;;;15.75;100.00
57801;BME280;43627;42.728;23.256;2022-09-17T01:48:29;94176.63;;;15.63;100.00
57801;BME280;43627;42.728;23.256;2022-09-17T01:51:10;94184.81;;;15.68;100.00
57801;BME280;43627;42.728;23.256;2022-09-17T01:53:43;94182.25;;;15.76;100.00
57801;BME280;43627;42.728;23.256;2022-09-17T01:56:13;94172.53;;;15.75;100.00
57801;BME280;43627;42.728;23.256;2022-09-17T01:58:51;94160.28;;;15.76;100.00
57801;BME280;43627;42.728;23.256;2022-09-17T02:01:21;94118.97;;;15.82;100.00
57801;BME280;43627;42.728;23.256;2022-09-17T02:04:10;94098.03;;;15.79;100.00
57801;BME280;43627;42.728;23.256;2022-09-17T02:06:44;94100.72;;;15.84;100.00
57801;BME280;43627;42.728;23.256;2022-09-17T02:09:16;94088.84;;;15.95;100.00
57801;BME280;43627;42.728;23.256;2022-09-17T02:11:49;94052.81;;;15.98;100.00
57801;BME280;43627;42.728;23.256;2022-09-17T02:14:39;94048.66;;;15.92;100.00
57801;BME280;43627;42.728;23.256;2022-09-17T02:17:13;94053.38;;;15.91;100.00
57801;BME280;43627;42.728;23.256;2022-09-17T02:19:42;94069.06;;;15.78;100.00
57801;BME280;43627;42.728;23.256;2022-09-17T02:22:47;94057.97;;;15.64;100.00
57801;BME280;43627;42.728;23.256;2022-09-17T02:25:30;94055.22;;;15.64;100.00
57801;BME280;43627;42.728;23.256;2022-09-17T02:28:02;94069.28;;;15.55;100.00
57801;BME280;43627;42.728;23.256;2022-09-17T02:30:31;94121.63;;;15.38;100.00
57801;BME280;43627;42.728;23.256;2022-09-17T02:33:00;94150.56;;;15.45;100.00
57801;BME280;43627;42.728;23.256;2022-09-17T02:35:27;94117.91;;;15.36;100.00
57801;BME280;43627;42.728;23.256;2022-09-17T02:37:55;94075.06;;;15.27;100.00
57801;BME280;43627;42.728;23.256;2022-09-17T02:40:24;94050.09;;;15.25;100.00
57801;BME280;43627;42.728;23.256;2022-09-17T02:45:48;94051.81;;;15.28;100.00
57801;BME280;43627;42.728;23.256;2022-09-17T03:00:22;94038.19;;;15.41;100.00
57801;BME280;43627;42.728;23.256;2022-09-17T03:05:25;94036.66;;;15.22;100.00
57801;BME280;43627;42.728;23.256;2022-09-17T03:07:58;94053.13;;;15.22;100.00
57801;BME280;43627;42.728;23.256;2022-09-17T03:10:25;94059.84;;;15.26;100.00
57801;BME280;43627;42.728;23.256;2022-09-17T03:12:58;94055.25;;;15.34;100.00
57801;BME280;43627;42.728;23.256;2022-09-17T03:15:25;94060.00;;;15.34;100.00
57801;BME280;43627;42.728;23.256;2022-09-17T03:17:52;94023.31;;;15.31;100.00
57801;BME280;43627;42.728;23.256;2022-09-17T03:20:19;94026.28;;;15.33;100.00
57801;BME280;43627;42.728;23.256;2022-09-17T03:22:46;94019.78;;;15.36;100.00
57801;BME280;43627;42.728;23.256;2022-09-17T03:25:12;94001.19;;;15.24;100.00
57801;BME280;43627;42.728;23.256;2022-09-17T03:27:39;93990.19;;;15.24;100.00
57801;BME280;43627;42.728;23.256;2022-09-17T03:30:06;93980.19;;;15.26;100.00
57801;BME280;43627;42.728;23.256;2022-09-17T03:32:32;93996.31;;;15.35;100.00
57801;BME280;43627;42.728;23.256;2022-09-17T03:34:59;94005.81;;;15.34;100.00
57801;BME280;43627;42.728;23.256;2022-09-17T03:37:26;94002.56;;;15.36;100.00
57801;BME280;43627;42.728;23.256;2022-09-17T03:39:57;94021.53;;;15.34;100.00
57801;BME280;43627;42.728;23.256;2022-09-17T03:42:24;94014.38;;;15.25;100.00
57801;BME280;43627;42.728;23.256;2022-09-17T03:44:51;94033.75;;;15.38;100.00
57801;BME280;43627;42.728;23.256;2022-09-17T03:47:17;94010.69;;;15.47;100.00
57801;BME280;43627;42.728;23.256;2022-09-17T03:49:44;94010.53;;;15.58;100.00
57801;BME280;43627;42.728;23.256;2022-09-17T03:52:11;93998.28;;;15.59;100.00
57801;BME280;43627;42.728;23.256;2022-09-17T03:54:37;94015.06;;;15.56;100.00
57801;BME280;43627;42.728;23.256;2022-09-17T03:57:04;94011.19;;;15.46;100.00
57801;BME280;43627;42.728;23.256;2022-09-17T03:59:31;94023.25;;;15.61;100.00
57801;BME280;43627;42.728;23.256;2022-09-17T04:01:57;94025.00;;;15.64;100.00
57801;BME280;43627;42.728;23.256;2022-09-17T04:04:24;94033.38;;;15.72;100.00
57801;BME280;43627;42.728;23.256;2022-09-17T04:06:51;94029.47;;;15.86;100.00
57801;BME280;43627;42.728;23.256;2022-09-17T04:09:17;94039.19;;;15.87;100.00
57801;BME280;43627;42.728;23.256;2022-09-17T04:11:44;94056.59;;;15.95;100.00
57801;BME280;43627;42.728;23.256;2022-09-17T04:14:11;94069.06;;;15.96;100.00
57801;BME280;43627;42.728;23.256;2022-09-17T04:16:37;94081.34;;;15.95;100.00
57801;BME280;43627;42.728;23.256;2022-09-17T04:19:04;94078.66;;;15.90;100.00
57801;BME280;43627;42.728;23.256;2022-09-17T04:21:30;94091.03;;;15.78;100.00
57801;BME280;43627;42.728;23.256;2022-09-17T04:23:57;94097.06;;;15.76;100.00
57801;BME280;43627;42.728;23.256;2022-09-17T04:26:24;94108.56;;;15.75;100.00
57801;BME280;43627;42.728;23.256;2022-09-17T04:28:51;94109.19;;;15.62;100.00
57801;BME280;43627;42.728;23.256;2022-09-17T04:31:17;94129.41;;;15.64;100.00
57801;BME280;43627;42.728;23.256;2022-09-17T04:33:44;94123.84;;;15.70;100.00
57801;BME280;43627;42.728;23.256;2022-09-17T04:36:10;94135.97;;;15.80;100.00
57801;BME280;43627;42.728;23.256;2022-09-17T04:38:37;94145.44;;;15.85;100.00
57801;BME280;43627;42.728;23.256;2022-09-17T04:41:06;94148.81;;;15.96;100.00
57801;BME280;43627;42.728;23.256;2022-09-17T04:43:32;94162.28;;;16.19;100.00
57801;BME280;43627;42.728;23.256;2022-09-17T04:45:59;94160.91;;;16.31;100.00
57801;BME280;43627;42.728;23.256;2022-09-17T04:48:26;94165.59;;;16.36;100.00
57801;BME280;43627;42.728;23.256;2022-09-17T04:50:52;94178.09;;;16.37;100.00
57801;BME280;43627;42.728;23.256;2022-09-17T04:53:19;94172.41;;;16.29;100.00
57801;BME280;43627;42.728;23.256;2022-09-17T04:55:46;94188.50;;;16.44;100.00
57801;BME280;43627;42.728;23.256;2022-09-17T04:58:12;94197.72;;;16.47;100.00
57801;BME280;43627;42.728;23.256;2022-09-17T05:00:39;94207.19;;;16.51;100.00
57801;BME280;43627;42.728;23.256;2022-09-17T05:03:07;94201.69;;;16.51;100.00
57801;BME280;43627;42.728;23.256;2022-09-17T05:05:34;94176.53;;;16.42;100.00
57801;BME280;43627;42.728;23.256;2022-09-17T05:08:01;94172.06;;;16.57;100.00
57801;BME280;43627;42.728;23.256;2022-09-17T05:10:28;94168.00;;;16.64;100.00
57801;BME280;43627;42.728;23.256;2022-09-17T05:12:55;94149.19;;;16.49;100.00
57801;BME280;43627;42.728;23.256;2022-09-17T05:15:23;94158.25;;;16.63;100.00
57801;BME280;43627;42.728;23.256;2022-09-17T05:17:50;94148.94;;;16.66;100.00
57801;BME280;43627;42.728;23.256;2022-09-17T05:20:17;94134.19;;;16.69;100.00
57801;BME280;43627;42.728;23.256;2022-09-17T05:22:49;94142.09;;;16.92;100.00
57801;BME280;43627;42.728;23.256;2022-09-17T05:25:17;94146.31;;;17.11;100.00
57801;BME280;43627;42.728;23.256;2022-09-17T05:27:44;94144.22;;;17.18;100.00
57801;BME280;43627;42.728;23.256;2022-09-17T05:30:12;94128.09;;;17.08;100.00
57801;BME280;43627;42.728;23.256;2022-09-17T05:32:38;94127.91;;;17.20;100.00
57801;BME280;43627;42.728;23.256;2022-09-17T05:35:06;94137.88;;;17.23;100.00
57801;BME280;43627;42.728;23.256;2022-09-17T05:37:33;94141.13;;;17.08;100.00
57801;BME280;43627;42.728;23.256;2022-09-17T05:40:01;94123.41;;;17.03;100.00
57801;BME280;43627;42.728;23.256;2022-09-17T05:42:28;94151.00;;;17.17;100.00
57801;BME280;43627;42.728;23.256;2022-09-17T05:44:55;94138.84;;;17.25;100.00
57801;BME280;43627;42.728;23.256;2022-09-17T05:47:21;94144.78;;;17.29;100.00
57801;BME280;43627;42.728;23.256;2022-09-17T05:49:48;94146.72;;;17.34;100.00
57801;BME280;43627;42.728;23.256;2022-09-17T05:52:15;94139.63;;;17.39;100.00
57801;BME280;43627;42.728;23.256;2022-09-17T05:54:41;94129.00;;;17.43;100.00
57801;BME280;43627;42.728;23.256;2022-09-17T05:57:08;94137.53;;;17.45;100.00
57801;BME280;43627;42.728;23.256;2022-09-17T05:59:35;94128.72;;;17.47;100.00
57801;BME280;43627;42.728;23.256;2022-09-17T06:02:02;94143.03;;;17.58;100.00
57801;BME280;43627;42.728;23.256;2022-09-17T06:04:28;94142.44;;;17.65;100.00
57801;BME280;43627;42.728;23.256;2022-09-17T06:07:05;94174.97;;;17.67;100.00
57801;BME280;43627;42.728;23.256;2022-09-17T06:09:35;94192.44;;;17.56;100.00
57801;BME280;43627;42.728;23.256;2022-09-17T06:12:06;94182.75;;;17.36;100.00
57801;BME280;43627;42.728;23.256;2022-09-17T06:14:33;94179.00;;;17.34;100.00
57801;BME280;43627;42.728;23.256;2022-09-17T06:17:00;94169.41;;;17.08;100.00
57801;BME280;43627;42.728;23.256;2022-09-17T06:19:26;94195.50;;;17.21;100.00
57801;BME280;43627;42.728;23.256;2022-09-17T06:21:54;94207.41;;;17.29;100.00
57801;BME280;43627;42.728;23.256;2022-09-17T06:24:20;94212.59;;;17.32;100.00
57801;BME280;43627;42.728;23.256;2022-09-17T06:26:47;94230.56;;;17.39;100.00
57801;BME280;43627;42.728;23.256;2022-09-17T06:29:13;94238.47;;;17.29;100.00
57801;BME280;43627;42.728;23.256;2022-09-17T06:31:40;94236.66;;;17.32;100.00
57801;BME280;43627;42.728;23.256;2022-09-17T06:34:10;94227.97;;;17.28;100.00
57801;BME280;43627;42.728;23.256;2022-09-17T06:36:37;94215.28;;;17.06;100.00
57801;BME280;43627;42.728;23.256;2022-09-17T06:39:04;94204.91;;;16.93;100.00
57801;BME280;43627;42.728;23.256;2022-09-17T06:41:30;94222.56;;;16.84;100.00
57801;BME280;43627;42.728;23.256;2022-09-17T06:43:58;94199.59;;;16.57;100.00
57801;BME280;43627;42.728;23.256;2022-09-17T06:46:25;94209.84;;;16.81;100.00
57801;BME280;43627;42.728;23.256;2022-09-17T06:48:52;94186.22;;;16.86;100.00
57801;BME280;43627;42.728;23.256;2022-09-17T06:51:18;94193.44;;;17.08;100.00
57801;BME280;43627;42.728;23.256;2022-09-17T06:53:45;94191.88;;;17.12;100.00
57801;BME280;43627;42.728;23.256;2022-09-17T06:56:12;94170.75;;;17.02;100.00
57801;BME280;43627;42.728;23.256;2022-09-17T06:58:38;94179.28;;;17.17;100.00
57801;BME280;43627;42.728;23.256;2022-09-17T07:01:10;94171.28;;;17.32;100.00
57801;BME280;43627;42.728;23.256;2022-09-17T07:03:37;94170.84;;;17.28;100.00
57801;BME280;43627;42.728;23.256;2022-09-17T07:06:07;94166.75;;;17.35;100.00
57801;BME280;43627;42.728;23.256;2022-09-17T07:08:38;94143.31;;;17.41;100.00
57801;BME280;43627;42.728;23.256;2022-09-17T07:11:05;94128.59;;;17.52;100.00
57801;BME280;43627;42.728;23.256;2022-09-17T07:13:31;94125.69;;;17.63;100.00
57801;BME280;43627;42.728;23.256;2022-09-17T07:16:00;94126.69;;;17.92;100.00
57801;BME280;43627;42.728;23.256;2022-09-17T07:18:27;94112.09;;;18.18;100.00
57801;BME280;43627;42.728;23.256;2022-09-17T07:20:56;94091.72;;;18.35;100.00
57801;BME280;43627;42.728;23.256;2022-09-17T07:23:24;94084.56;;;18.52;100.00
57801;BME280;43627;42.728;23.256;2022-09-17T07:26:03;94092.94;;;18.60;100.00
57801;BME280;43627;42.728;23.256;2022-09-17T07:28:30;94130.75;;;18.99;100.00
57801;BME280;43627;42.728;23.256;2022-09-17T07:30:57;94127.13;;;19.46;100.00
57801;BME280;43627;42.728;23.256;2022-09-17T07:33:25;94114.63;;;19.74;100.00
57801;BME280;43627;42.728;23.256;2022-09-17T07:35:56;94117.28;;;19.58;100.00
57801;BME280;43627;42.728;23.256;2022-09-17T07:38:24;94101.16;;;19.49;100.00
57801;BME280;43627;42.728;23.256;2022-09-17T07:43:20;94095.56;;;19.91;100.00
57801;BME280;43627;42.728;23.256;2022-09-17T07:45:47;94098.34;;;19.98;100.00
57801;BME280;43627;42.728;23.256;2022-09-17T07:48:14;94098.53;;;20.29;100.00
57801;BME280;43627;42.728;23.256;2022-09-17T07:50:41;94097.06;;;20.28;100.00
57801;BME280;43627;42.728;23.256;2022-09-17T07:53:07;94090.66;;;20.41;100.00
57801;BME280;43627;42.728;23.256;2022-09-17T07:55:34;94088.72;;;20.64;100.00
57801;BME280;43627;42.728;23.256;2022-09-17T07:58:00;94076.03;;;20.76;100.00
57801;BME280;43627;42.728;23.256;2022-09-17T08:00:27;94089.94;;;21.15;100.00
57801;BME280;43627;42.728;23.256;2022-09-17T08:02:55;94085.56;;;21.42;100.00
57801;BME280;43627;42.728;23.256;2022-09-17T08:05:23;94073.31;;;21.76;100.00
57801;BME280;43627;42.728;23.256;2022-09-17T08:07:54;94069.59;;;21.81;100.00
57801;BME280;43627;42.728;23.256;2022-09-17T08:10:21;94071.84;;;21.67;100.00
57801;BME280;43627;42.728;23.256;2022-09-17T08:12:49;94051.09;;;21.83;100.00
57801;BME280;43627;42.728;23.256;2022-09-17T08:15:19;94058.47;;;21.96;100.00
57801;BME280;43627;42.728;23.256;2022-09-17T08:17:46;94052.34;;;21.98;100.00
57801;BME280;43627;42.728;23.256;2022-09-17T08:20:14;94060.84;;;22.07;100.00
57801;BME280;43627;42.728;23.256;2022-09-17T08:22:41;94059.53;;;22.23;100.00
57801;BME280;43627;42.728;23.256;2022-09-17T08:25:15;94076.50;;;22.35;100.00
57801;BME280;43627;42.728;23.256;2022-09-17T08:27:41;94077.94;;;22.44;100.00
57801;BME280;43627;42.728;23.256;2022-09-17T08:30:08;94069.28;;;22.72;96.58
57801;BME280;43627;42.728;23.256;2022-09-17T08:32:35;94074.63;;;22.86;86.74
57801;BME280;43627;42.728;23.256;2022-09-17T08:35:02;94071.41;;;22.97;90.03
57801;BME280;43627;42.728;23.256;2022-09-17T08:37:29;94066.72;;;23.07;85.69
57801;BME280;43627;42.728;23.256;2022-09-17T08:39:56;94063.69;;;22.80;88.58
57801;BME280;43627;42.728;23.256;2022-09-17T08:42:31;94058.31;;;22.90;87.85
57801;BME280;43627;42.728;23.256;2022-09-17T08:45:04;94061.69;;;23.13;86.78
57801;BME280;43627;42.728;23.256;2022-09-17T08:47:47;94057.09;;;23.33;87.71
57801;BME280;43627;42.728;23.256;2022-09-17T08:50:32;94070.16;;;22.90;87.24
57801;BME280;43627;42.728;23.256;2022-09-17T08:55:45;94074.59;;;22.93;91.89
57801;BME280;43627;42.728;23.256;2022-09-17T09:01:39;94065.38;;;22.43;99.85
57801;BME280;43627;42.728;23.256;2022-09-17T09:07:18;94065.88;;;22.01;96.98
57801;BME280;43627;42.728;23.256;2022-09-17T09:10:13;94004.56;;;21.28;100.00
57801;BME280;43627;42.728;23.256;2022-09-17T09:12:44;94013.97;;;21.25;100.00
57801;BME280;43627;42.728;23.256;2022-09-17T09:17:46;94004.41;;;20.29;100.00
57801;BME280;43627;42.728;23.256;2022-09-17T09:20:47;94017.31;;;20.19;100.00
57801;BME280;43627;42.728;23.256;2022-09-17T09:23:23;94080.91;;;20.47;100.00
57801;BME280;43627;42.728;23.256;2022-09-17T09:26:09;94104.19;;;20.16;100.00
57801;BME280;43627;42.728;23.256;2022-09-17T09:28:56;94112.06;;;20.04;100.00
57801;BME280;43627;42.728;23.256;2022-09-17T09:34:16;94123.41;;;19.44;100.00
57801;BME280;43627;42.728;23.256;2022-09-17T09:36:44;94135.53;;;19.40;100.00
57801;BME280;43627;42.728;23.256;2022-09-17T09:41:54;94154.63;;;19.31;100.00
57801;BME280;43627;42.728;23.256;2022-09-17T09:44:25;94127.31;;;19.06;100.00
57801;BME280;43627;42.728;23.256;2022-09-17T09:50:16;94180.13;;;19.03;100.00
57801;BME280;43627;42.728;23.256;2022-09-17T09:52:54;94172.34;;;18.80;100.00
57801;BME280;43627;42.728;23.256;2022-09-17T09:55:39;94178.94;;;18.77;100.00
57801;BME280;43627;42.728;23.256;2022-09-17T09:58:34;94154.81;;;18.78;100.00
57801;BME280;43627;42.728;23.256;2022-09-17T10:01:13;94113.34;;;18.44;100.00
57801;BME280;43627;42.728;23.256;2022-09-17T10:03:54;94134.19;;;18.32;100.00
57801;BME280;43627;42.728;23.256;2022-09-17T10:06:35;94108.59;;;18.31;100.00
57801;BME280;43627;42.728;23.256;2022-09-17T10:11:40;94035.56;;;17.72;100.00
57801;BME280;43627;42.728;23.256;2022-09-17T10:17:14;94046.25;;;17.62;100.00
57801;BME280;43627;42.728;23.256;2022-09-17T10:19:40;94060.34;;;17.58;100.00
57801;BME280;43627;42.728;23.256;2022-09-17T10:22:31;94028.97;;;17.61;100.00
57801;BME280;43627;42.728;23.256;2022-09-17T10:25:00;94008.84;;;17.40;100.00
57801;BME280;43627;42.728;23.256;2022-09-17T10:27:32;94004.59;;;17.26;100.00
57801;BME280;43627;42.728;23.256;2022-09-17T10:30:14;94007.97;;;17.19;100.00
57801;BME280;43627;42.728;23.256;2022-09-17T10:32:42;94021.75;;;17.32;100.00
57801;BME280;43627;42.728;23.256;2022-09-17T10:37:49;94075.31;;;17.63;100.00
57801;BME280;43627;42.728;23.256;2022-09-17T10:43:12;94033.66;;;17.66;100.00
57801;BME280;43627;42.728;23.256;2022-09-17T10:46:02;94029.63;;;17.81;100.00
57801;BME280;43627;42.728;23.256;2022-09-17T10:48:57;94016.91;;;17.91;100.00
57801;BME280;43627;42.728;23.256;2022-09-17T10:51:33;93975.28;;;18.02;100.00
57801;BME280;43627;42.728;23.256;2022-09-17T10:54:17;94056.44;;;18.88;100.00
57801;BME280;43627;42.728;23.256;2022-09-17T10:56:54;94025.75;;;18.99;100.00
57801;BME280;43627;42.728;23.256;2022-09-17T10:59:57;93994.16;;;18.66;100.00
57801;BME280;43627;42.728;23.256;2022-09-17T11:08:54;94047.38;;;19.08;100.00
57801;BME280;43627;42.728;23.256;2022-09-17T11:23:22;94054.94;;;20.66;100.00
57801;BME280;43627;42.728;23.256;2022-09-17T11:25:58;94058.97;;;20.65;100.00
57801;BME280;43627;42.728;23.256;2022-09-17T11:28:45;94045.50;;;20.61;100.00
57801;BME280;43627;42.728;23.256;2022-09-17T11:39:09;94041.34;;;19.38;100.00
57801;BME280;43627;42.728;23.256;2022-09-17T11:41:41;94023.97;;;19.30;100.00
57801;BME280;43627;42.728;23.256;2022-09-17T11:44:37;94013.22;;;19.48;100.00
57801;BME280;43627;42.728;23.256;2022-09-17T11:47:19;94011.00;;;19.46;100.00
57801;BME280;43627;42.728;23.256;2022-09-17T11:50:08;93986.81;;;19.39;100.00
57801;BME280;43627;42.728;23.256;2022-09-17T11:52:46;93999.84;;;19.31;100.00
57801;BME280;43627;42.728;23.256;2022-09-17T11:55:27;93996.94;;;19.36;100.00
57801;BME280;43627;42.728;23.256;2022-09-17T11:58:18;93994.75;;;19.14;100.00
57801;BME280;43627;42.728;23.256;2022-09-17T12:01:02;94001.78;;;19.15;100.00
57801;BME280;43627;42.728;23.256;2022-09-17T12:06:04;93931.47;;;18.53;100.00
57801;BME280;43627;42.728;23.256;2022-09-17T12:13:49;93982.44;;;18.94;100.00
57801;BME280;43627;42.728;23.256;2022-09-17T12:16:23;94000.44;;;18.88;100.00
57801;BME280;43627;42.728;23.256;2022-09-17T12:21:43;93993.44;;;18.87;100.00
57801;BME280;43627;42.728;23.256;2022-09-17T12:24:29;93979.16;;;18.75;100.00
57801;BME280;43627;42.728;23.256;2022-09-17T12:42:02;93966.72;;;18.26;100.00
57801;BME280;43627;42.728;23.256;2022-09-17T12:54:19;93945.59;;;17.95;100.00
57801;BME280;43627;42.728;23.256;2022-09-17T13:00:10;93936.50;;;17.87;100.00
57801;BME280;43627;42.728;23.256;2022-09-17T13:15:13;93907.34;;;17.78;100.00
57801;BME280;43627;42.728;23.256;2022-09-17T13:18:28;93920.59;;;17.93;100.00
57801;BME280;43627;42.728;23.256;2022-09-17T13:23:51;93807.69;;;17.40;100.00
57801;BME280;43627;42.728;23.256;2022-09-17T13:26:37;93920.25;;;18.17;100.00
57801;BME280;43627;42.728;23.256;2022-09-17T13:29:11;93862.88;;;17.95;100.00
57801;BME280;43627;42.728;23.256;2022-09-17T13:31:47;93909.09;;;18.44;100.00
57801;BME280;43627;42.728;23.256;2022-09-17T13:34:28;93912.06;;;18.46;100.00
57801;BME280;43627;42.728;23.256;2022-09-17T13:37:03;93905.19;;;18.60;100.00
57801;BME280;43627;42.728;23.256;2022-09-17T13:39:41;93889.03;;;18.64;100.00
57801;BME280;43627;42.728;23.256;2022-09-17T13:42:22;93841.19;;;18.41;100.00
57801;BME280;43627;42.728;23.256;2022-09-17T13:45:14;93875.56;;;18.81;100.00
57801;BME280;43627;42.728;23.256;2022-09-17T13:48:04;93847.75;;;18.79;100.00
57801;BME280;43627;42.728;23.256;2022-09-17T13:50:43;93848.84;;;18.55;100.00
57801;BME280;43627;42.728;23.256;2022-09-17T13:55:52;93741.66;;;18.10;100.00
57801;BME280;43627;42.728;23.256;2022-09-17T14:01:10;93746.41;;;18.10;100.00
57801;BME280;43627;42.728;23.256;2022-09-17T14:08:53;93761.22;;;18.20;100.00
57801;BME280;43627;42.728;23.256;2022-09-17T14:19:24;93841.19;;;18.90;100.00
57801;BME280;43627;42.728;23.256;2022-09-17T14:22:53;93816.72;;;18.66;100.00
57801;BME280;43627;42.728;23.256;2022-09-17T14:25:00;93842.03;;;18.56;100.00
57801;BME280;43627;42.728;23.256;2022-09-17T14:27:58;93858.59;;;18.56;100.00
57801;BME280;43627;42.728;23.256;2022-09-17T14:30:43;93865.47;;;18.63;100.00
57801;BME280;43627;42.728;23.256;2022-09-17T14:33:22;93745.63;;;17.81;100.00
57801;BME280;43627;42.728;23.256;2022-09-17T14:36:17;93718.19;;;17.54;100.00
57801;BME280;43627;42.728;23.256;2022-09-17T14:38:53;93708.19;;;17.44;100.00
57801;BME280;43627;42.728;23.256;2022-09-17T14:41:29;93727.34;;;17.91;100.00
57801;BME280;43627;42.728;23.256;2022-09-17T14:44:19;93733.06;;;17.93;100.00
57801;BME280;43627;42.728;23.256;2022-09-17T14:47:12;93807.44;;;18.06;100.00
57801;BME280;43627;42.728;23.256;2022-09-17T14:49:46;93707.63;;;17.45;100.00
57801;BME280;43627;42.728;23.256;2022-09-17T14:52:43;93804.03;;;17.92;100.00
57801;BME280;43627;42.728;23.256;2022-09-17T14:55:27;93758.66;;;17.59;100.00
57801;BME280;43627;42.728;23.256;2022-09-17T14:58:32;93741.00;;;17.21;100.00
57801;BME280;43627;42.728;23.256;2022-09-17T15:01:32;93688.38;;;17.11;100.00
57801;BME280;43627;42.728;23.256;2022-09-17T15:04:30;93772.50;;;17.67;100.00
57801;BME280;43627;42.728;23.256;2022-09-17T15:07:11;93750.31;;;17.52;100.00
57801;BME280;43627;42.728;23.256;2022-09-17T15:09:49;93769.31;;;17.76;100.00
57801;BME280;43627;42.728;23.256;2022-09-17T15:12:32;93723.56;;;17.39;100.00
57801;BME280;43627;42.728;23.256;2022-09-17T15:15:19;93755.06;;;17.51;100.00
57801;BME280;43627;42.728;23.256;2022-09-17T15:17:51;93746.25;;;17.53;100.00
57801;BME280;43627;42.728;23.256;2022-09-17T15:20:39;93759.69;;;17.69;100.00
57801;BME280;43627;42.728;23.256;2022-09-17T15:23:20;93687.56;;;17.24;100.00
57801;BME280;43627;42.728;23.256;2022-09-17T15:26:35;93747.16;;;17.68;100.00
57801;BME280;43627;42.728;23.256;2022-09-17T15:29:10;93756.22;;;17.56;100.00
57801;BME280;43627;42.728;23.256;2022-09-17T15:32:01;93701.38;;;17.45;100.00
57801;BME280;43627;42.728;23.256;2022-09-17T15:34:35;93725.31;;;17.70;100.00
57801;BME280;43627;42.728;23.256;2022-09-17T15:37:20;93637.69;;;17.06;100.00
57801;BME280;43627;42.728;23.256;2022-09-17T15:40:04;93681.66;;;17.61;100.00
57801;BME280;43627;42.728;23.256;2022-09-17T15:42:47;93735.25;;;18.15;100.00
57801;BME280;43627;42.728;23.256;2022-09-17T15:45:30;93705.75;;;18.03;100.00
57801;BME280;43627;42.728;23.256;2022-09-17T15:48:02;93716.06;;;18.10;100.00
57801;BME280;43627;42.728;23.256;2022-09-17T15:51:00;93650.56;;;17.74;100.00
57801;BME280;43627;42.728;23.256;2022-09-17T15:53:52;93661.59;;;17.74;100.00
57801;BME280;43627;42.728;23.256;2022-09-17T15:56:21;93754.97;;;18.48;100.00
57801;BME280;43627;42.728;23.256;2022-09-17T16:02:03;93677.16;;;18.21;100.00
57801;BME280;43627;42.728;23.256;2022-09-17T16:04:36;93609.78;;;17.73;100.00
57801;BME280;43627;42.728;23.256;2022-09-17T16:10:00;93656.34;;;18.12;100.00
57801;BME280;43627;42.728;23.256;2022-09-17T16:12:29;93677.25;;;18.36;100.00
57801;BME280;43627;42.728;23.256;2022-09-17T16:15:00;93727.38;;;18.55;100.00
57801;BME280;43627;42.728;23.256;2022-09-17T16:17:44;93662.31;;;18.32;100.00
57801;BME280;43627;42.728;23.256;2022-09-17T16:20:28;93685.72;;;18.38;100.00